createdAt,value
2019-04-21T00:00:11.832Z,20.48
2019-04-21T00:02:44.281Z,21.07
2019-04-21T00:05:33.453Z,20.40
2019-04-21T00:08:10.854Z,20.17
2019-04-21T00:10:40.104Z,19.12
2019-04-21T00:13:05.054Z,18.55
2019-04-21T00:15:29.988Z,17.35
2019-04-21T00:17:58.826Z,18.20
2019-04-21T00:20:37.081Z,20.65
2019-04-21T00:23:19.854Z,16.57
2019-04-21T00:25:42.907Z,18.85
2019-04-21T00:28:28.966Z,15.80
2019-04-21T00:30:59.082Z,16.40
2019-04-21T00:33:13.904Z,16.97
2019-04-21T00:35:51.133Z,16.85
2019-04-21T00:38:42.699Z,15.88
2019-04-21T00:41:08.908Z,14.63
2019-04-21T00:43:32.921Z,15.65
2019-04-21T00:45:59.944Z,15.98
2019-04-21T00:48:45.658Z,18.20
2019-04-21T00:51:40.699Z,17.12
2019-04-21T00:54:03.961Z,18.90
2019-04-21T00:56:28.473Z,18.62
2019-04-21T00:59:07.117Z,16.40
2019-04-21T01:01:33.122Z,15.50
2019-04-21T01:04:04.403Z,15.78
2019-04-21T01:09:07.669Z,16.95
2019-04-21T01:11:44.835Z,18.70
2019-04-21T01:14:27.923Z,14.73
2019-04-21T01:16:45.368Z,19.07
2019-04-21T01:19:15.735Z,21.90
2019-04-21T01:21:27.445Z,20.02
2019-04-21T01:24:07.744Z,25.02
2019-04-21T01:26:42.630Z,25.00
2019-04-21T01:29:22.682Z,29.57
2019-04-21T01:31:48.048Z,24.32
2019-04-21T01:34:29.042Z,26.12
2019-04-21T01:36:54.245Z,23.98
2019-04-21T01:39:34.497Z,25.52
2019-04-21T01:42:03.560Z,30.97
2019-04-21T01:44:39.122Z,30.92
2019-04-21T01:46:58.754Z,30.23
2019-04-21T01:49:29.660Z,31.20
2019-04-21T01:52:26.934Z,29.90
2019-04-21T01:54:51.998Z,30.32
2019-04-21T01:57:27.945Z,30.25
2019-04-21T01:59:52.784Z,34.85
2019-04-21T02:02:30.374Z,33.63
2019-04-21T02:05:03.181Z,30.55
2019-04-21T02:07:34.245Z,32.67
2019-04-21T02:10:07.110Z,31.73
2019-04-21T02:12:40.603Z,32.55
2019-04-21T02:15:12.639Z,36.53
2019-04-21T02:17:34.305Z,31.10
2019-04-21T02:20:02.802Z,35.17
2019-04-21T02:22:59.176Z,36.70
2019-04-21T02:25:18.335Z,30.32
2019-04-21T02:27:51.442Z,32.25
2019-04-21T02:30:29.538Z,31.52
2019-04-21T02:33:03.780Z,32.60
2019-04-21T02:35:51.033Z,31.77
2019-04-21T02:38:11.860Z,34.50
2019-04-21T02:40:40.494Z,36.28
2019-04-21T02:43:13.456Z,31.27
2019-04-21T02:45:43.365Z,28.65
2019-04-21T02:48:26.053Z,32.67
2019-04-21T02:50:51.175Z,33.85
2019-04-21T02:53:22.766Z,36.98
2019-04-21T02:55:44.064Z,35.33
2019-04-21T02:58:31.626Z,27.35
2019-04-21T03:00:57.242Z,35.20
2019-04-21T03:03:36.330Z,36.15
2019-04-21T03:06:20.692Z,35.48
2019-04-21T03:11:14.512Z,36.53
2019-04-21T03:14:01.062Z,40.40
2019-04-21T03:24:05.305Z,33.98
2019-04-21T03:26:36.389Z,35.78
2019-04-21T03:29:12.007Z,34.92
2019-04-21T03:32:04.435Z,41.30
2019-04-21T03:39:11.386Z,34.35
2019-04-21T03:42:04.478Z,39.67
2019-04-21T03:44:26.673Z,35.48
2019-04-21T03:46:48.021Z,33.60
2019-04-21T03:49:36.477Z,36.98
2019-04-21T03:51:56.290Z,35.23
2019-04-21T03:54:26.387Z,40.03
2019-04-21T03:57:08.838Z,39.60
2019-04-21T03:59:24.668Z,35.45
2019-04-21T04:02:18.210Z,40.12
2019-04-21T04:04:53.460Z,40.30
2019-04-21T04:07:44.088Z,36.55
2019-04-21T04:10:07.729Z,40.85
2019-04-21T04:15:12.345Z,36.08
2019-04-21T04:17:40.406Z,40.38
2019-04-21T04:20:22.925Z,36.10
2019-04-21T04:22:55.329Z,42.35
2019-04-21T04:25:22.489Z,37.73
2019-04-21T04:28:00.162Z,37.65
2019-04-21T04:30:27.657Z,36.20
2019-04-21T04:32:51.896Z,36.38
2019-04-21T04:37:55.946Z,33.13
2019-04-21T04:40:50.823Z,29.80
2019-04-21T04:53:30.991Z,32.85
2019-04-21T04:58:56.720Z,31.87
2019-04-21T05:03:24.226Z,38.38
2019-04-21T05:09:03.494Z,35.98
2019-04-21T05:14:02.623Z,33.10
2019-04-21T05:21:34.740Z,28.92
2019-04-21T05:23:54.004Z,29.72
2019-04-21T05:26:17.134Z,33.33
2019-04-21T05:28:50.967Z,32.00
2019-04-21T05:31:32.780Z,28.60
2019-04-21T05:34:06.945Z,30.55
2019-04-21T05:36:48.968Z,29.65
2019-04-21T05:39:30.262Z,32.93
2019-04-21T05:41:54.197Z,34.45
2019-04-21T05:44:59.851Z,32.75
2019-04-21T05:47:20.825Z,40.50
2019-04-21T05:49:40.046Z,36.35
2019-04-21T05:52:08.131Z,39.18
2019-04-21T05:54:55.675Z,39.67
2019-04-21T05:57:15.618Z,39.18
2019-04-21T05:59:51.488Z,40.60
2019-04-21T06:02:22.250Z,42.73
2019-04-21T06:07:30.288Z,44.75
2019-04-21T06:10:02.814Z,45.60
2019-04-21T06:12:38.220Z,38.92
2019-04-21T06:15:01.716Z,41.00
2019-04-21T06:17:36.695Z,46.10
2019-04-21T06:20:07.608Z,40.48
2019-04-21T06:22:39.700Z,38.55
2019-04-21T06:25:31.629Z,41.77
2019-04-21T06:27:39.003Z,41.23
2019-04-21T06:30:13.454Z,39.60
2019-04-21T06:35:52.975Z,42.75
2019-04-21T06:38:19.429Z,42.20
2019-04-21T06:40:46.262Z,40.88
2019-04-21T06:43:22.803Z,39.33
2019-04-21T06:45:51.121Z,43.63
2019-04-21T06:48:18.686Z,39.78
2019-04-21T06:50:52.433Z,34.75
2019-04-21T06:53:23.790Z,38.92
2019-04-21T06:55:43.524Z,33.05
2019-04-21T06:58:18.390Z,34.75
2019-04-21T07:00:47.658Z,36.45
2019-04-21T07:03:32.306Z,33.25
2019-04-21T07:06:03.435Z,39.05
2019-04-21T07:08:34.558Z,33.55
2019-04-21T07:11:06.701Z,33.73
2019-04-21T07:13:30.881Z,29.48
2019-04-21T07:16:12.035Z,27.32
2019-04-21T07:18:42.905Z,33.08
2019-04-21T07:21:08.269Z,26.35
2019-04-21T07:23:45.859Z,26.87
2019-04-21T07:26:15.669Z,21.30
2019-04-21T07:28:49.746Z,24.40
2019-04-21T07:31:22.482Z,27.17
2019-04-21T07:36:33.530Z,22.55
2019-04-21T07:38:49.753Z,23.67
2019-04-21T07:41:20.088Z,22.42
2019-04-21T07:43:53.380Z,20.40
2019-04-21T07:46:25.612Z,22.60
2019-04-21T07:49:08.034Z,24.05
2019-04-21T07:51:54.899Z,20.40
2019-04-21T07:54:29.120Z,25.02
2019-04-21T07:56:36.204Z,23.25
2019-04-21T07:59:31.565Z,24.60
2019-04-21T08:01:56.373Z,25.23
2019-04-21T08:04:49.618Z,22.17
2019-04-21T08:07:21.914Z,23.95
2019-04-21T08:09:47.274Z,23.30
2019-04-21T08:12:20.272Z,26.70
2019-04-21T08:15:03.161Z,17.40
2019-04-21T08:17:24.165Z,20.08
2019-04-21T08:19:56.056Z,19.27
2019-04-21T08:22:32.133Z,17.10
2019-04-21T08:25:02.821Z,12.47
2019-04-21T08:27:36.789Z,10.23
2019-04-21T08:30:09.448Z,9.93
2019-04-21T08:32:54.001Z,8.80
2019-04-21T08:37:40.124Z,9.45
2019-04-21T08:40:17.710Z,9.80
2019-04-21T08:42:44.762Z,7.42
2019-04-21T08:45:25.836Z,5.05
2019-04-21T08:47:55.286Z,5.22
2019-04-21T08:50:21.946Z,6.42
2019-04-21T08:53:04.179Z,8.28
2019-04-21T08:55:31.813Z,8.15
2019-04-21T08:58:31.796Z,6.10
2019-04-21T09:01:10.592Z,9.08
2019-04-21T09:03:56.683Z,5.92
2019-04-21T09:06:40.293Z,7.22
2019-04-21T09:08:57.783Z,6.75
2019-04-21T09:11:22.674Z,6.70
2019-04-21T09:13:54.681Z,7.40
2019-04-21T09:16:27.978Z,9.65
2019-04-21T09:18:54.050Z,9.73
2019-04-21T09:21:49.919Z,5.50
2019-04-21T09:24:04.537Z,5.35
2019-04-21T09:26:37.003Z,5.75
2019-04-21T09:29:00.378Z,7.75
2019-04-21T09:31:25.949Z,6.08
2019-04-21T09:33:57.285Z,10.28
2019-04-21T09:36:33.414Z,7.87
2019-04-21T09:39:06.623Z,4.83
2019-04-21T09:41:29.613Z,7.15
2019-04-21T09:44:01.247Z,6.92
2019-04-21T09:46:35.494Z,7.87
2019-04-21T09:49:07.403Z,6.37
2019-04-21T09:51:34.668Z,6.00
2019-04-21T09:54:11.596Z,7.33
2019-04-21T09:56:45.578Z,6.28
2019-04-21T09:59:18.014Z,8.93
2019-04-21T10:01:55.992Z,6.53
2019-04-21T10:04:12.072Z,5.85
2019-04-21T10:06:43.179Z,4.67
2019-04-21T10:09:17.371Z,12.82
2019-04-21T10:11:45.942Z,7.55
2019-04-21T10:14:17.554Z,7.62
2019-04-21T10:16:58.089Z,11.97
2019-04-21T10:19:27.500Z,7.70
2019-04-21T10:21:59.529Z,6.63
2019-04-21T10:24:28.746Z,7.13
2019-04-21T10:26:58.972Z,7.70
2019-04-21T10:29:31.272Z,7.07
2019-04-21T10:32:01.534Z,8.93
2019-04-21T10:34:31.506Z,5.13
2019-04-21T10:37:01.370Z,5.83
2019-04-21T10:39:31.560Z,9.20
2019-04-21T10:42:05.713Z,4.97
2019-04-21T10:44:36.769Z,5.30
2019-04-21T10:47:06.939Z,7.63
2019-04-21T10:49:40.380Z,5.50
2019-04-21T10:52:17.761Z,4.73
2019-04-21T10:55:06.917Z,5.23
2019-04-21T10:57:20.525Z,4.67
2019-04-21T10:59:52.731Z,5.63
2019-04-21T11:02:23.167Z,5.17
2019-04-21T11:05:04.874Z,3.57
2019-04-21T11:07:58.902Z,5.53
2019-04-21T11:10:18.291Z,4.97
2019-04-21T11:12:48.156Z,4.70
2019-04-21T11:15:19.240Z,5.40
2019-04-21T11:17:50.531Z,3.70
2019-04-21T11:20:20.516Z,4.70
2019-04-21T11:22:51.291Z,6.13
2019-04-21T11:25:22.048Z,4.67
2019-04-21T11:27:53.159Z,3.80
2019-04-21T11:30:23.983Z,4.97
2019-04-21T11:32:55.164Z,3.70
2019-04-21T11:35:27.545Z,3.03
2019-04-21T11:38:06.092Z,5.63
2019-04-21T11:40:31.886Z,3.77
2019-04-21T11:43:02.163Z,2.87
2019-04-21T11:45:34.801Z,3.43
2019-04-21T11:48:08.203Z,5.13
2019-04-21T11:50:39.125Z,4.53
2019-04-21T11:53:08.850Z,5.40
2019-04-21T11:55:43.226Z,5.10
2019-04-21T11:58:10.022Z,3.17
2019-04-21T12:00:40.234Z,2.37
2019-04-21T12:03:12.391Z,4.07
2019-04-21T12:05:41.671Z,3.83
2019-04-21T12:08:23.096Z,2.13
2019-04-21T12:10:42.959Z,4.03
2019-04-21T12:13:14.065Z,3.30
2019-04-21T12:15:45.072Z,3.93
2019-04-21T12:18:15.547Z,3.80
2019-04-21T12:20:45.454Z,2.57
2019-04-21T12:23:16.241Z,4.87
2019-04-21T12:25:49.299Z,2.17
2019-04-21T12:28:19.694Z,5.17
2019-04-21T12:30:51.684Z,2.20
2019-04-21T12:33:38.152Z,3.97
2019-04-21T12:36:09.345Z,1.60
2019-04-21T12:38:46.981Z,3.83
2019-04-21T12:41:13.211Z,2.27
2019-04-21T12:43:42.835Z,2.43
2019-04-21T12:46:13.914Z,3.87
2019-04-21T12:48:44.235Z,3.43
2019-04-21T12:51:15.461Z,1.77
2019-04-21T12:53:45.633Z,2.60
2019-04-21T12:56:15.765Z,2.03
2019-04-21T12:58:47.116Z,2.87
2019-04-21T13:01:16.967Z,5.87
2019-04-21T13:03:48.005Z,2.80
2019-04-21T13:06:17.718Z,3.43
2019-04-21T13:08:54.487Z,6.63
2019-04-21T13:11:19.236Z,2.50
2019-04-21T13:13:49.885Z,3.77
2019-04-21T13:16:21.163Z,1.73
2019-04-21T13:18:51.206Z,1.80
2019-04-21T13:21:22.340Z,3.13
2019-04-21T13:23:52.766Z,4.73
2019-04-21T13:26:35.585Z,3.27
2019-04-21T13:28:54.243Z,3.80
2019-04-21T13:31:24.547Z,3.40
2019-04-21T13:33:55.660Z,3.27
2019-04-21T13:36:25.777Z,2.00
2019-04-21T13:39:33.058Z,1.70
2019-04-21T13:41:47.417Z,4.50
2019-04-21T13:44:15.606Z,2.63
2019-04-21T13:46:47.232Z,3.73
2019-04-21T13:49:17.365Z,5.23
2019-04-21T13:51:47.996Z,4.10
2019-04-21T13:54:18.138Z,2.20
2019-04-21T13:56:47.835Z,2.83
2019-04-21T13:59:18.289Z,3.67
2019-04-21T14:01:48.136Z,3.87
2019-04-21T14:04:17.894Z,2.63
2019-04-21T14:06:48.037Z,2.73
2019-04-21T14:09:19.847Z,3.97
2019-04-21T14:11:52.489Z,2.23
2019-04-21T14:14:21.018Z,2.53
2019-04-21T14:16:51.987Z,2.10
2019-04-21T14:19:21.888Z,2.53
2019-04-21T14:21:53.095Z,2.77
2019-04-21T14:24:22.958Z,3.50
2019-04-21T14:26:52.621Z,2.57
2019-04-21T14:29:23.560Z,2.27
2019-04-21T14:31:53.553Z,2.50
2019-04-21T14:34:23.871Z,3.93
2019-04-21T14:36:55.013Z,3.43
2019-04-21T14:39:26.270Z,3.00
2019-04-21T14:41:56.175Z,3.23
2019-04-21T14:44:27.113Z,1.93
2019-04-21T14:47:03.010Z,1.40
2019-04-21T14:49:37.423Z,2.87
2019-04-21T14:52:15.023Z,1.73
2019-04-21T14:54:49.321Z,2.97
2019-04-21T14:57:21.221Z,2.80
2019-04-21T14:59:51.179Z,3.37
2019-04-21T15:02:22.320Z,2.70
2019-04-21T15:04:53.510Z,2.63
2019-04-21T15:07:25.422Z,6.07
2019-04-21T15:10:04.419Z,1.93
2019-04-21T15:12:27.839Z,3.13
2019-04-21T15:14:58.170Z,1.70
2019-04-21T15:17:29.396Z,2.10
2019-04-21T15:20:08.022Z,2.13
2019-04-21T15:22:32.339Z,2.90
2019-04-21T15:25:02.825Z,4.13
2019-04-21T15:27:32.850Z,3.40
2019-04-21T15:30:02.944Z,2.40
2019-04-21T15:32:32.818Z,2.33
2019-04-21T15:35:04.034Z,1.70
2019-04-21T15:37:33.934Z,2.33
2019-04-21T15:40:15.004Z,3.23
2019-04-21T15:42:36.895Z,4.30
2019-04-21T15:45:08.430Z,3.17
2019-04-21T15:47:38.308Z,2.00
2019-04-21T15:50:12.619Z,3.33
2019-04-21T15:52:40.247Z,3.27
2019-04-21T15:55:18.834Z,2.40
2019-04-21T15:58:06.896Z,1.90
2019-04-21T16:00:42.621Z,2.63
2019-04-21T16:03:12.967Z,3.67
2019-04-21T16:05:42.723Z,2.60
2019-04-21T16:08:13.897Z,3.27
2019-04-21T16:10:52.146Z,3.53
2019-04-21T16:13:16.054Z,4.37
2019-04-21T16:15:46.320Z,4.80
2019-04-21T16:18:16.279Z,5.27
2019-04-21T16:20:46.007Z,4.40
2019-04-21T16:23:15.666Z,5.03
2019-04-21T16:25:46.552Z,3.60
2019-04-21T16:28:17.308Z,4.23
2019-04-21T16:30:48.789Z,3.67
2019-04-21T16:33:18.866Z,4.80
2019-04-21T16:35:49.535Z,5.03
2019-04-21T16:38:19.725Z,3.53
2019-04-21T16:40:56.225Z,2.57
2019-04-21T16:43:20.972Z,11.60
2019-04-21T16:45:52.904Z,6.73
2019-04-21T16:48:23.311Z,4.20
2019-04-21T16:50:53.227Z,3.77
2019-04-21T16:53:37.736Z,4.30
2019-04-21T16:56:15.282Z,3.63
2019-04-21T16:58:46.772Z,4.63
2019-04-21T17:01:25.701Z,3.83
2019-04-21T17:03:55.378Z,6.37
2019-04-21T17:06:29.231Z,4.10
2019-04-21T17:08:59.166Z,3.10
2019-04-21T17:11:34.683Z,3.67
2019-04-21T17:14:01.373Z,6.10
2019-04-21T17:19:13.630Z,4.93
2019-04-21T17:21:34.215Z,4.10
2019-04-21T17:24:04.489Z,3.13
2019-04-21T17:26:37.440Z,5.23
2019-04-21T17:29:06.752Z,8.47
2019-04-21T17:31:37.200Z,6.40
2019-04-21T17:34:13.642Z,5.77
2019-04-21T17:36:39.140Z,4.30
2019-04-21T17:39:13.038Z,4.23
2019-04-21T17:41:59.173Z,4.13
2019-04-21T17:44:15.113Z,4.97
2019-04-21T17:46:54.035Z,5.40
2019-04-21T17:49:18.871Z,4.13
2019-04-21T17:51:55.600Z,4.40
2019-04-21T17:54:33.265Z,3.00
2019-04-21T17:57:16.541Z,4.75
2019-04-21T17:59:58.391Z,5.53
2019-04-21T18:02:17.518Z,3.20
2019-04-21T18:04:49.626Z,4.03
2019-04-21T18:07:21.571Z,4.50
2019-04-21T18:10:00.937Z,4.58
2019-04-21T18:12:28.073Z,5.92
2019-04-21T18:15:02.061Z,8.13
2019-04-21T18:17:22.526Z,6.40
2019-04-21T18:19:54.879Z,6.00
2019-04-21T18:22:38.622Z,6.47
2019-04-21T18:25:13.748Z,8.35
2019-04-21T18:27:40.792Z,7.67
2019-04-21T18:30:16.430Z,6.45
2019-04-21T18:32:48.184Z,11.20
2019-04-21T18:35:20.889Z,6.33
2019-04-21T18:38:04.531Z,8.98
2019-04-21T18:40:32.967Z,10.58
2019-04-21T18:43:38.216Z,10.50
2019-04-21T18:48:24.709Z,14.95
2019-04-21T18:51:05.776Z,9.38
2019-04-21T18:53:46.973Z,6.92
2019-04-21T18:56:06.476Z,7.55
2019-04-21T18:58:36.011Z,12.78
2019-04-21T19:01:12.757Z,17.23
2019-04-21T19:03:42.993Z,14.33
2019-04-21T19:06:16.442Z,18.12
2019-04-21T19:09:08.297Z,15.85
2019-04-21T19:11:28.209Z,10.95
2019-04-21T19:14:19.717Z,20.48
2019-04-21T19:17:27.602Z,25.68
2019-04-21T19:21:40.374Z,14.55
2019-04-21T19:24:25.958Z,16.35
2019-04-21T19:26:52.453Z,16.07
2019-04-21T19:29:23.967Z,15.00
2019-04-21T19:34:14.308Z,15.48
2019-04-21T19:36:48.809Z,18.02
2019-04-21T19:39:23.281Z,14.95
2019-04-21T19:41:58.616Z,14.90
2019-04-21T19:44:36.573Z,17.42
2019-04-21T19:47:03.918Z,12.60
2019-04-21T19:49:43.812Z,17.48
2019-04-21T19:51:56.510Z,18.95
2019-04-21T19:54:31.629Z,19.35
2019-04-21T19:56:53.663Z,16.85
2019-04-21T19:59:32.521Z,16.15
2019-04-21T20:01:56.206Z,15.53
2019-04-21T20:04:34.087Z,18.00
2019-04-21T20:07:10.303Z,18.40
2019-04-21T20:09:46.447Z,21.95
2019-04-21T20:12:18.471Z,23.67
2019-04-21T20:14:59.114Z,22.02
2019-04-21T20:17:18.990Z,27.80
2019-04-21T20:19:38.419Z,19.80
2019-04-21T20:22:09.367Z,23.22
2019-04-21T20:24:40.082Z,26.55
2019-04-21T20:27:17.699Z,21.55
2019-04-21T20:30:02.184Z,24.95
2019-04-21T20:32:35.190Z,22.45
2019-04-21T20:35:07.982Z,24.25
2019-04-21T20:37:32.145Z,21.95
2019-04-21T20:39:59.839Z,22.32
2019-04-21T20:42:36.274Z,20.95
2019-04-21T20:45:28.990Z,24.07
2019-04-21T20:47:35.243Z,21.70
2019-04-21T20:50:09.418Z,23.10
2019-04-21T20:52:48.022Z,19.90
2019-04-21T20:55:11.941Z,21.68
2019-04-21T20:57:46.478Z,21.68
2019-04-21T21:00:23.340Z,23.55
2019-04-21T21:03:00.907Z,19.37
2019-04-21T21:05:27.455Z,24.07
2019-04-21T21:08:08.644Z,24.12
2019-04-21T21:10:34.717Z,21.73
2019-04-21T21:13:14.531Z,24.63
2019-04-21T21:15:43.930Z,19.62
2019-04-21T21:18:15.572Z,19.07
2019-04-21T21:20:45.103Z,20.92
2019-04-21T21:23:07.535Z,19.32
2019-04-21T21:26:03.135Z,21.02
2019-04-21T21:28:09.222Z,19.05
2019-04-21T21:30:43.164Z,20.37
2019-04-21T21:33:17.128Z,22.02
2019-04-21T21:35:49.404Z,20.08
2019-04-21T21:38:25.539Z,19.32
2019-04-21T21:40:54.392Z,22.60
2019-04-21T21:43:17.553Z,21.57
2019-04-21T21:45:50.058Z,22.10
2019-04-21T21:48:32.090Z,21.73
2019-04-21T21:51:02.015Z,23.30
2019-04-21T21:53:25.510Z,24.43
2019-04-21T21:55:54.451Z,25.35
2019-04-21T21:58:27.435Z,24.90
2019-04-21T22:01:02.343Z,24.50
2019-04-21T22:03:34.188Z,25.88
2019-04-21T22:06:06.153Z,22.00
2019-04-21T22:08:32.463Z,23.12
2019-04-21T22:11:03.292Z,27.77
2019-04-21T22:13:46.172Z,22.07
2019-04-21T22:16:10.620Z,24.12
2019-04-21T22:19:02.638Z,28.15
2019-04-21T22:21:18.854Z,28.17
2019-04-21T22:23:51.513Z,24.07
2019-04-21T22:26:13.376Z,22.80
2019-04-21T22:28:43.702Z,22.42
2019-04-21T22:31:20.671Z,25.68
2019-04-21T22:33:48.286Z,26.82
2019-04-21T22:36:31.285Z,22.42
2019-04-21T22:39:09.200Z,29.72
2019-04-21T22:41:28.928Z,24.82
2019-04-21T22:43:55.185Z,23.42
2019-04-21T22:46:24.407Z,22.35
2019-04-21T22:49:00.329Z,23.50
2019-04-21T22:51:35.360Z,22.00
2019-04-21T22:53:59.967Z,26.82
2019-04-21T22:56:33.609Z,23.70
2019-04-21T22:59:08.603Z,25.68
2019-04-21T23:01:40.449Z,25.37
2019-04-21T23:04:07.170Z,29.45
2019-04-21T23:06:39.628Z,23.02
2019-04-21T23:09:11.055Z,25.37
2019-04-21T23:11:45.418Z,27.20
2019-04-21T23:14:15.378Z,22.07
2019-04-21T23:16:47.226Z,25.10
2019-04-21T23:19:29.355Z,26.37
2019-04-21T23:22:04.103Z,24.70
2019-04-21T23:24:40.127Z,23.30
2019-04-21T23:26:59.780Z,22.65
2019-04-21T23:29:50.783Z,21.95
2019-04-21T23:32:12.356Z,21.97
2019-04-21T23:34:31.975Z,25.82
2019-04-21T23:37:06.724Z,20.45
2019-04-21T23:39:32.776Z,22.87
2019-04-21T23:42:03.141Z,21.68
2019-04-21T23:44:42.852Z,23.70
2019-04-21T23:47:08.624Z,20.77
2019-04-21T23:49:48.247Z,21.87
2019-04-21T23:52:10.948Z,21.62
2019-04-21T23:54:40.975Z,27.15
2019-04-21T23:57:16.235Z,23.25
2019-04-21T23:59:46.905Z,22.05
